This is the latest recevied weather packets stored in our database for station/object DB0HRH-10. If no packets are shown the sender has not sent any weather packets the latest 10 day(s).
| Time | Temp. | Humidity | Pressure | Rain* | Wind** | Luminosity | Snow |
|---|---|---|---|---|---|---|---|
| 1777205784 | 22.78° C | 20% | 1024.9 hPa | - | - | - | - |
| 1777204884 | 24.44° C | 19% | 1024.9 hPa | - | - | - | - |
| 1777203984 | 22.78° C | 22% | 1025 hPa | - | - | - | - |
| 1777203084 | 23.33° C | 21% | 1025.1 hPa | - | - | - | - |
| 1777202184 | 24.44° C | 21% | 1025.2 hPa | - | - | - | - |
| 1777201284 | 25° C | 20% | 1025.3 hPa | - | - | - | - |
| 1777200383 | 23.33° C | 22% | 1025.3 hPa | - | - | - | - |
| 1777199483 | 26.11° C | 18% | 1025.3 hPa | - | - | - | - |
| 1777198583 | 23.33° C | 20% | 1025.4 hPa | - | - | - | - |
| 1777197683 | 25° C | 20% | 1025.4 hPa | - | - | - | - |
| 1777196783 | 21.67° C | 25% | 1025.5 hPa | - | - | - | - |
| 1777195883 | 21.11° C | 25% | 1025.5 hPa | - | - | - | - |
| 1777194983 | 18.89° C | 26% | 1025.7 hPa | - | - | - | - |
| 1777194083 | 18.33° C | 29% | 1025.7 hPa | - | - | - | - |
| 1777193183 | 17.78° C | 29% | 1025.7 hPa | - | - | - | - |
| 1777192283 | 17.22° C | 31% | 1025.6 hPa | - | - | - | - |
| 1777191383 | 18.33° C | 31% | 1025.6 hPa | - | - | - | - |
| 1777190483 | 17.22° C | 33% | 1025.5 hPa | - | - | - | - |
| 1777189583 | 14.44° C | 37% | 1025.5 hPa | - | - | - | - |
| 1777188683 | 12.78° C | 38% | 1025.6 hPa | - | - | - | - |
| 1777187782 | 12.78° C | 36% | 1025.4 hPa | - | - | - | - |
| 1777186882 | 12.22° C | 34% | 1025.5 hPa | - | - | - | - |
| 1777185982 | 12.22° C | 34% | 1025.4 hPa | - | - | - | - |
| 1777185082 | 11.11° C | 36% | 1025.2 hPa | - | - | - | - |
| 1777184182 | 10.56° C | 37% | 1025.4 hPa | - | - | - | - |
* Rain since midnight (hover to see other rain measurements)
** Current wind speed in m/s (hover to see current wind gust speed)